x

8548989 - Newbold, Pa (nblp1) Weather Station

1:54pm - Tue 31st May 2016 All times are EDT. -4 hours from GMT.

  • Wind
    2mph, 3mph gusts
  • Sea Temp 78°f
  • Air Temp 83°f
  • Sea Pressure 1014.3mb
  • 8548989 - Newbold, Pa
  • 8548989 - Newbold, Pa

More Historic Weather Station data

Upgrade to MSW Pro to gain access to the past 30 days of data for over 8000 Wavebouys and Weather Stations around the globe.

Join Pro

Comparision Forecast

View Surf forecast
   
Tue 05/31 1:54pm 2 3 mph 1014.3mb 78f 83f
1:48pm 3 6 mph 1014.4mb 78f 82f
1:42pm 1 5 mph 1014.5mb 78f 82f
1:36pm 5 6 mph 1014.5mb 78f 82f
1:30pm 3 7 mph 1014.6mb 78f 81f
1:24pm 6 8 mph 1014.7mb 77f 82f
1:18pm 2 5 mph 1014.7mb 77f 82f
1:12pm 1 6 mph 1014.7mb 77f 82f
1:06pm 3 7 mph 1014.7mb 77f 81f
1:00pm 6 9 mph 1014.7mb 77f 82f
12:54pm 6 9 mph 1014.7mb 77f 82f
12:48pm 5 9 mph 1014.8mb 77f 82f
12:42pm 6 9 mph 1014.8mb 77f 81f
12:36pm 6 10 mph 1014.9mb 77f 81f
12:30pm 5 8 mph 1015mb 77f 81f
12:24pm 3 8 mph 1015mb 77f 80f
12:18pm 5 11 mph 1015mb 77f 81f
12:12pm 8 13 mph 1015mb 77f 80f
12:06pm 8 10 mph 1014.9mb 77f 80f
12:00pm 5 9 mph 1015mb 77f 81f
11:54am 6 10 mph 1015mb 77f 80f
11:48am 10 13 mph 1015mb 77f 81f
11:42am 3 11 mph 1015mb 77f 80f
11:36am 7 11 mph 1015mb 77f 80f
11:30am 6 11 mph 1015mb 77f 81f
11:24am 6 14 mph 1015mb 77f 81f
11:18am 7 11 mph 1015mb 77f 80f
11:12am 7 14 mph 1015mb 77f 80f
11:06am 3 7 mph 1015mb 77f 80f
11:00am 6 10 mph 1015.1mb 77f 79f
10:54am 8 11 mph 1015.1mb 77f 79f
10:48am 9 11 mph 1015.1mb 77f 79f
10:42am 7 11 mph 1015.1mb 77f 79f
10:36am 3 10 mph 1015.2mb 77f 79f
10:30am 5 9 mph 1015.2mb 77f 79f
10:24am 5 8 mph 1015.2mb 77f 78f
10:18am 5 8 mph 1015.2mb 77f 78f
10:12am 6 7 mph 1015.1mb 77f 78f
10:06am 6 9 mph 1015.1mb 77f 78f
10:00am 3 7 mph 1015.2mb 77f 78f
9:54am 2 6 mph 1015.1mb 77f 77f
9:48am 1 3 mph 1015.1mb 77f 76f
9:42am 3 6 mph 1015.2mb 77f 75f
9:36am 2 7 mph 1015.2mb 77f 75f
9:30am 2 5 mph 1015.1mb 77f 75f
9:24am 3 6 mph 1015mb 77f 74f
9:18am 2 6 mph 1015mb 77f 75f
9:12am 3 6 mph 1015mb 77f 74f
9:06am 3 6 mph 1015mb 77f 74f
9:00am 2 6 mph 1014.9mb 77f 74f
8:54am 2 5 mph 1014.9mb 77f 73f
8:48am 5 6 mph 1014.9mb 77f 72f
8:42am 3 7 mph 1014.9mb 77f 72f
8:36am 5 7 mph 1015mb 77f 72f
8:30am 2 5 mph 1015mb 77f 71f
8:24am 3 6 mph 1015mb 77f 71f
8:18am 3 5 mph 1015mb 77f 71f
8:12am 3 6 mph 1015mb 77f 71f
8:06am 5 6 mph 1015mb 77f 71f
8:00am 5 6 mph 1015mb 77f 71f
7:54am 3 5 mph 1015mb 77f 71f
7:48am 3 5 mph 1015mb 77f 70f
7:42am 3 5 mph 1015mb 77f 70f
7:36am 3 5 mph 1015.1mb 77f 70f
7:30am 2 3 mph 1015mb 77f 70f
7:24am 3
mph
1014.9mb 77f 70f
7:18am 2 3 mph 1014.8mb 77f 70f
7:12am 2 3 mph 1014.8mb 77f 70f
7:06am 2 3 mph 1014.7mb 77f 70f
7:00am 2 3 mph 1014.7mb 77f 70f
6:54am 2 3 mph 1014.6mb 77f 70f
6:48am 2 3 mph 1014.5mb 78f 70f
6:42am 2 3 mph 1014.5mb 78f 70f
6:36am 2 5 mph 1014.5mb 78f 70f
6:30am 3 5 mph 1014.5mb 78f 70f
6:24am 5 6 mph 1014.5mb 78f 70f
6:18am 5 6 mph 1014.4mb 78f 70f
6:12am 3
mph
1014.1mb 78f 70f
6:06am 2 5 mph 1014.2mb 78f 70f
6:00am 3 5 mph 1014.3mb 78f 70f
5:54am 3 5 mph 1014.3mb 78f 70f
5:48am 3 5 mph 1014.3mb 78f 70f
5:42am 3 5 mph 1014.4mb 78f 70f
5:36am 3 5 mph 1014.4mb 78f 70f
5:30am 5
mph
1014.5mb 78f 70f
5:24am 3 5 mph 1014.5mb 78f 70f
5:18am 2 3 mph 1014.3mb 78f 70f
5:12am 2 3 mph 1014.2mb 78f 70f
5:06am 3 5 mph 1014.1mb 78f 70f
5:00am 3 5 mph 1014.1mb 78f 70f
4:54am 1 3 mph 1014.1mb 78f 70f
4:48am 2 5 mph 1014.1mb 78f 70f
4:42am 3 5 mph 1014.1mb 78f 70f
4:36am 2 3 mph 1014.2mb 78f 70f
4:30am 1 5 mph 1014.2mb 78f 70f
4:24am 3 5 mph 1014.2mb 78f 70f
4:18am 2 5 mph 1014.2mb 78f 70f
4:12am 3 5 mph 1014.2mb 78f 70f
4:06am 3
mph
1014.2mb 78f 70f
4:00am 3 5 mph 1014.2mb 78f 70f
3:54am 2 7 mph 1014.3mb 78f 70f
3:48am 5 7 mph 1014.3mb 78f 70f
3:42am 3 6 mph 1014.3mb 78f 70f
3:36am 6 8 mph 1014.3mb 78f 70f
3:30am 6 9 mph 1014.2mb 78f 71f
3:24am 6 7 mph 1014.4mb 78f 71f
3:18am 6 8 mph 1014.5mb 78f 70f
3:12am 6 9 mph 1014.5mb 78f 70f
3:06am 5 6 mph 1014.6mb 78f 70f
3:00am 5 6 mph 1014.6mb 78f 70f
2:54am 3 6 mph 1014.6mb 78f 70f
2:48am 5 6 mph 1014.5mb 78f 70f
2:42am 3 6 mph 1014.5mb 78f 70f
2:36am 5 6 mph 1014.4mb 78f 70f
2:30am 2 3 mph 1014.4mb 78f 70f
2:24am 3
mph
1014.4mb 78f 70f
2:18am 2 5 mph 1014.5mb 78f 70f
2:12am 3 6 mph 1014.5mb 78f 70f
2:06am 5 6 mph 1014.4mb 78f 70f
2:00am 5 6 mph 1014.4mb 78f 70f
1:54am 5 6 mph 1014.4mb 78f 70f
1:48am 5 6 mph 1014.4mb 78f 70f
1:42am 3 5 mph 1014.5mb 78f 70f
1:36am 3 6 mph 1014.5mb 78f 70f
1:30am 3 6 mph 1014.5mb 78f 70f
1:24am 2 3 mph 1014.5mb 78f 70f
1:18am 3 6 mph 1014.4mb 78f 70f
1:12am 5 6 mph 1014.3mb 78f 70f
1:06am 5 6 mph 1014.3mb 78f 71f
1:00am 3 6 mph 1014.3mb 78f 71f
12:54am 5 6 mph 1014.3mb 78f 71f
12:48am 3 7 mph 1014.2mb 78f 71f
12:42am 3 7 mph 1014.4mb 78f 71f
12:36am 6 7 mph 1014.5mb 78f 71f
12:30am 3 6 mph 1014.6mb 78f 71f
12:24am 5 7 mph 1014.7mb 78f 71f
12:18am 5 6 mph 1014.9mb 78f 71f
12:12am 5 6 mph 1014.9mb 78f 71f
12:06am 5 7 mph 1015mb 78f 71f
12:00am 5 7 mph 1015.1mb 78f 71f
Mon 05/30 11:54pm 5 7 mph 1015.2mb 78f 71f
11:48pm 6 8 mph 1015.1mb 78f 71f
11:42pm 6 8 mph 1015.1mb 78f 71f
11:36pm 6 8 mph 1015.1mb 78f 71f
11:30pm 5 8 mph 1015.1mb 78f 71f
11:24pm 7 10 mph 1015.2mb 78f 71f
11:18pm  -  mph - 78f 71f
11:12pm  -  mph - 78f 71f
11:06pm  -  mph - 78f 71f
11:00pm  -  mph - 78f -
10:54pm  -  mph - 77f -
10:48pm  -  mph - 77f -
10:42pm  -  mph - 77f -
10:36pm  -  mph - 77f -
10:30pm 6 10 mph 1015.2mb 78f -
10:24pm 9 13 mph 1015mb 78f -
10:18pm  -  mph 1015.1mb 78f -
10:12pm  -  mph 1015.2mb 78f -
10:06pm  -  mph 1015.2mb 78f -
10:00pm  -  mph 1015.2mb 78f -
9:54pm  -  mph 1015.2mb 78f -
9:48pm 8 13 mph 1015.4mb 78f 72f
9:42pm 7 13 mph 1015.4mb 78f 72f
9:36pm 7 9 mph 1015.4mb 78f 72f
9:30pm 7 11 mph 1015.5mb 78f -
9:24pm 8 13 mph 1015.4mb 78f -
9:18pm  -  mph 1015.4mb 78f 72f
9:12pm  -  mph 1015.4mb 78f 73f
9:06pm  -  mph 1015.3mb 78f 73f
9:00pm  -  mph 1015.4mb 78f -
8:54pm  -  mph 1015.4mb 78f -
8:48pm  -  mph - 78f -
8:42pm  -  mph - 78f -
8:36pm  -  mph - 78f -
8:30pm  -  mph - 78f -
8:24pm  -  mph - 78f -
8:18pm  -  mph 1015.1mb 78f -
8:12pm  -  mph 1015.1mb 78f -
8:06pm  -  mph 1015mb 78f -
8:00pm  -  mph - 78f 73f
7:54pm  -  mph - 78f 73f
7:48pm  -  mph - 78f -
7:42pm  -  mph - 78f -
7:36pm  -  mph - 78f -
7:30pm  -  mph 1014.9mb 78f -
7:24pm  -  mph 1014.6mb 78f -
7:18pm  -  mph - 78f 74f
7:12pm  -  mph - 78f 74f
7:06pm  -  mph - 78f 74f
7:00pm  -  mph - 78f 74f
6:54pm  -  mph - 78f 75f
6:48pm  -  mph - 78f 75f
6:42pm  -  mph - 78f 75f
6:36pm  -  mph - 78f 75f
6:30pm 8 10 mph - 78f -
6:24pm 7 11 mph - 78f -
6:18pm  -  mph 1014.3mb 78f 76f
6:12pm  -  mph 1014.2mb 78f 76f
6:06pm  -  mph 1014.3mb 78f 76f
6:00pm  -  mph - 78f 76f
5:54pm  -  mph - 78f 76f
5:48pm  -  mph - 78f -
5:42pm  -  mph - 78f -
5:36pm  -  mph - 78f -
5:30pm 6 8 mph 1014.3mb 78f 77f
5:24pm 6 8 mph 1014.3mb 78f 77f
5:18pm 7 9 mph 1014.3mb 78f 77f
5:12pm 7 10 mph 1014.3mb 78f 77f
5:06pm 7 9 mph 1014.2mb 78f 77f
5:00pm 7 10 mph 1014.2mb 78f 77f
4:54pm 6 8 mph 1014.2mb 78f 77f
4:48pm 6 8 mph 1014.2mb 78f 77f
4:42pm 8 10 mph 1014.2mb 78f 77f
4:36pm 7 9 mph 1014.2mb 78f 77f
4:30pm 5 7 mph 1014.2mb 78f 78f
4:24pm 6 8 mph 1014.2mb 78f 78f
4:18pm 7 8 mph 1014.2mb 78f 78f
4:12pm 6 10 mph 1014.2mb 78f 78f
4:06pm 6 8 mph 1014.3mb 78f 78f
4:00pm 6 8 mph 1014.3mb 78f 78f
3:54pm 5 7 mph 1014.3mb 78f 78f
3:48pm 6 10 mph 1014.4mb 78f 78f
3:42pm 6 9 mph 1014.4mb 78f 78f
3:36pm 8 10 mph 1014.5mb 78f 78f
3:30pm 8 10 mph 1014.5mb 78f 78f
3:24pm 8 9 mph 1014.5mb 77f 78f
3:18pm 7 11 mph 1014.5mb 77f 78f
3:12pm 6 11 mph 1014.6mb 77f 78f
3:06pm 7 9 mph 1014.7mb 77f 78f
3:00pm 5 9 mph 1014.8mb 77f 78f
2:54pm 8 9 mph 1014.8mb 77f 78f
2:48pm 7 8 mph 1015mb 77f 78f
2:42pm 7 8 mph 1015mb 77f 78f
2:36pm 5 8 mph 1014.9mb 77f 78f
2:30pm 3 7 mph 1014.9mb 77f 78f
2:24pm 6 7 mph 1015mb 77f 77f
2:18pm 6 8 mph 1015.1mb 77f 77f
2:12pm 7 9 mph 1015.1mb 77f 77f
2:06pm 5 7 mph 1015.2mb 77f 78f
2:00pm 5 6 mph 1015.2mb 77f 78f
1:54pm 3 6 mph 1015.2mb 77f 78f
1:48pm 3 5 mph 1015.3mb 77f 77f
1:42pm 2 6 mph 1015.3mb 77f 77f
1:36pm 3 6 mph 1015.4mb 77f 77f
1:30pm 5 7 mph 1015.5mb 77f 77f
1:24pm 5 6 mph 1015.6mb 77f 77f
1:18pm 6 9 mph 1015.6mb 77f 77f
1:12pm 6 8 mph 1015.7mb 77f 77f
1:06pm 3 5 mph 1015.6mb 77f 77f
1:00pm 3 6 mph 1015.6mb 77f 77f
12:54pm 5 6 mph 1015.5mb 77f 77f
12:48pm 5 6 mph 1015.5mb 77f 77f
12:42pm 3
mph
1015.4mb 77f 77f
12:36pm 1 3 mph 1015.3mb 77f 76f
12:30pm 3 5 mph 1015.3mb 77f 76f
12:24pm 3
mph
1015.3mb 77f 76f
12:18pm 3 6 mph 1015.4mb 77f 76f
12:12pm 3 5 mph 1015.5mb 77f 76f
12:06pm 2 6 mph 1015.5mb 77f 76f
12:00pm 2 5 mph 1015.6mb 77f 76f
11:54am 3 5 mph 1015.7mb 77f 76f
11:48am 2 5 mph 1015.8mb 77f 75f
11:42am 3 5 mph 1015.9mb 77f 75f
11:36am 3 5 mph 1015.8mb 77f 75f
11:30am 3 5 mph 1015.8mb 77f 74f
11:24am 3
mph
1015.9mb 77f 74f
11:18am 2 5 mph 1016mb 77f 74f
11:12am 2 3 mph 1016.1mb 77f 74f
11:06am 2 5 mph 1016.2mb 77f 74f
11:00am 5
mph
1016.3mb 77f 73f
10:54am 2 3 mph 1016.4mb 77f 73f
10:48am 2 5 mph 1016.4mb 77f 73f
10:42am 3 6 mph 1016.5mb 77f 72f
10:36am 5 6 mph 1016.7mb 77f 72f
10:30am 5 6 mph 1016.8mb 77f 72f
10:24am 5 6 mph 1016.8mb 77f 72f
10:18am 3 5 mph 1016.8mb 77f 72f
10:12am 3 5 mph 1016.8mb 77f 71f
10:06am 5
mph
1016.9mb 77f 71f
10:00am 2 5 mph 1016.9mb 77f 71f
9:54am 3 6 mph 1016.9mb 77f 71f
9:48am 5 6 mph 1016.9mb 77f 71f
9:42am 3 5 mph 1016.9mb 77f 71f
9:36am 2 6 mph 1016.9mb 77f 71f
9:30am 3 5 mph 1017mb 77f 71f
9:24am 3 5 mph 1017mb 77f 71f
9:18am 2 5 mph 1017mb 77f 71f
9:12am 2 5 mph 1017mb 77f 71f
9:06am 3 5 mph 1017mb 77f 70f
9:00am  -  3 mph 1017mb 77f 70f
8:54am  -  3 mph 1016.9mb 77f 70f
8:48am 2 3 mph 1017mb 77f 70f
8:42am 2 3 mph 1017mb 77f 70f
8:36am 2 3 mph 1017mb 77f 70f
8:30am 2 3 mph 1017mb 77f 69f
8:24am 2 3 mph 1016.9mb 77f 69f
8:18am 1 2 mph 1016.9mb 77f 69f
8:12am  -  2 mph 1016.7mb 77f 69f
8:06am 2 6 mph 1016.7mb 77f 69f
8:00am 5 6 mph 1016.7mb 77f 69f
7:54am 6 7 mph 1016.6mb 77f 69f
7:48am 3 7 mph 1016.5mb 77f 69f
7:42am 6 7 mph 1016.5mb 77f 70f
7:36am 6 8 mph 1016.3mb 77f 69f
7:30am 6 7 mph 1016.3mb 77f 70f
7:24am 6 8 mph 1016.3mb 77f 70f
7:18am 6
mph
1016.3mb 77f 70f
7:12am 5 6 mph 1016.3mb 77f 70f
7:06am 5 6 mph 1016.2mb 77f 70f
7:00am 6
mph
1016.2mb 77f 69f
6:54am 3 5 mph 1016.2mb 77f 69f
6:48am 3 5 mph 1016.2mb 77f 70f
6:42am 3 5 mph 1016.2mb 77f 69f
6:36am 3 5 mph 1016.2mb 77f 69f
6:30am 3 5 mph 1016.2mb 77f 69f
6:24am 5
mph
1016.2mb 77f 69f
6:18am 3 5 mph 1016.1mb 77f 69f
6:12am 3
mph
1016.1mb 77f 69f
6:06am 2 3 mph 1016mb 77f 70f
6:00am 2 3 mph 1016mb 77f 70f
5:54am 1 3 mph 1016mb 77f 70f
5:48am 1 3 mph 1016mb 77f 70f
5:42am 1 3 mph 1016mb 77f 70f
5:36am 2 3 mph 1016mb 77f 70f
5:30am 3 5 mph 1016mb 77f 69f
5:24am 2 3 mph 1016mb 77f 69f
5:18am 1 3 mph 1015.9mb 77f 69f
5:12am 3 5 mph 1015.9mb 77f 69f
5:06am 3 5 mph 1016.1mb 77f 70f
5:00am 3 7 mph 1015.9mb 77f 69f
4:54am 5 7 mph 1015.7mb 77f 69f
4:48am 2 5 mph 1015.5mb 77f 69f
4:42am 3 6 mph 1015.3mb 77f 69f
4:36am 2 7 mph 1015.4mb 77f 69f
4:30am 1 6 mph 1015.9mb 77f 69f
4:24am 5 8 mph 1015.9mb 77f 69f
4:18am 2 3 mph 1015.9mb 77f 69f
4:12am 2 3 mph 1015.8mb 77f 69f
4:06am 2 3 mph 1015.7mb 77f 69f
4:00am 1
mph
1015.8mb 77f 69f
3:54am 1
mph
1015.8mb 77f 69f
3:48am 1 2 mph 1015.9mb 77f 69f
3:42am  -  3 mph 1016mb 77f 69f
3:36am 2 5 mph 1016.1mb 77f 69f
3:30am 5 6 mph 1016.1mb 77f 69f
3:24am  -  6 mph 1016.1mb 77f 69f
3:18am 6
mph
1016.2mb 77f 69f
3:12am 1 2 mph 1016.2mb 77f 68f
3:06am 1 2 mph 1016.1mb 77f 68f
3:00am  -  2 mph 1016.2mb 77f 68f
2:54am 3
mph
1016.1mb 77f 69f
2:48am  -  2 mph 1016.3mb 77f 69f
2:42am 1 3 mph 1016.2mb 77f 68f
2:36am 2 3 mph 1016.3mb 77f 69f
2:30am  -  2 mph 1016.5mb 77f 68f
2:24am 2 3 mph 1016.5mb 77f 68f
2:18am 2 3 mph 1016.5mb 77f 68f
2:12am 2
mph
1016.8mb 76f 68f
2:06am 2 3 mph 1016.9mb 76f 68f
2:00am  -  2 mph 1017mb 76f 69f
1:54am 1 3 mph 1016.9mb 76f 69f
1:48am  -  mph 1017mb 76f 69f
1:42am  -  mph 1017.3mb 76f 68f
1:36am  -  mph 1017.5mb 76f 69f
1:30am  -  2 mph 1017.5mb 76f 69f
1:24am 1 2 mph 1017.3mb 76f 69f
1:18am 1 2 mph 1017.5mb 76f 69f
1:12am 1 3 mph 1017.6mb 76f 68f
1:06am 2 3 mph 1017.6mb 76f 68f
1:00am 2 3 mph 1017.6mb 76f 68f
12:54am 1 3 mph 1017.6mb 76f 68f
12:48am 3 6 mph 1017.7mb 76f 68f
12:42am 3 5 mph 1017.9mb 76f 68f
12:36am 3 5 mph 1018.1mb 76f 69f
12:30am 5 6 mph 1018.1mb 76f 69f
12:24am 3
mph
1018.2mb 76f 69f
12:18am 3 5 mph 1018.2mb 76f 69f
12:12am 2 5 mph 1018.2mb 76f 69f
12:06am 2 3 mph 1018.1mb 76f 69f
12:00am  -  3 mph 1018.2mb 76f 69f
Sun 05/29 11:54pm 1 3 mph 1017.9mb 76f 69f
11:48pm  -  mph 1018.5mb 76f 70f
11:42pm  -  mph 1018.6mb 76f 70f
11:36pm  -  mph 1018.1mb 76f 70f
11:30pm 9 11 mph 1018mb 76f 71f
11:24pm 5 6 mph 1018.2mb 76f 73f
11:18pm  -  mph 1018.3mb 76f 73f
11:12pm  -  mph 1018.3mb 76f 73f
11:06pm  -  mph 1018.4mb 76f 73f
11:00pm  -  mph - 76f 73f
10:54pm  -  mph - 76f 73f
10:48pm 5 6 mph 1018.5mb 76f -
10:42pm 5 6 mph 1018.6mb 76f -
10:36pm 3 5 mph 1018.6mb 76f -
10:30pm  -  mph 1018.6mb - -
10:24pm  -  mph 1018.6mb - -
10:18pm  -  mph - 76f -
10:12pm  -  mph - 76f -
10:06pm  -  mph - 76f -
10:00pm  -  mph - 76f 76f
9:54pm  -  mph - 76f 76f
9:48pm 10 16 mph 1018.6mb 76f -
9:42pm 7 11 mph 1018.6mb 76f -
9:36pm 6 9 mph 1018.6mb 76f -
9:30pm  -  mph 1018.6mb - -
9:24pm  -  mph 1018.5mb - -
9:18pm  -  mph - 77f 77f
9:12pm  -  mph - 77f 77f
9:06pm  -  mph - 77f 77f
9:00pm  -  mph 1018.3mb 77f -
8:54pm  -  mph 1018.2mb 77f -
8:48pm  -  mph 1018.2mb 77f -
8:42pm  -  mph 1018.2mb 77f -
8:36pm  -  mph 1018.2mb 77f -
8:30pm  -  mph 1018.3mb - -
8:24pm  -  mph 1018.3mb - -
8:18pm  -  mph - 77f 78f
8:12pm  -  mph - 77f 78f
8:06pm  -  mph - 77f 78f
8:00pm  -  mph 1018.3mb 77f 78f
7:54pm  -  mph 1018.2mb 77f 78f
7:48pm  -  mph 1018.2mb 77f -
7:42pm  -  mph 1018.2mb 77f -
7:36pm  -  mph 1018.1mb 77f -
7:30pm 8 15 mph - - -
7:24pm 10 16 mph - - -
7:18pm  -  mph - 77f 80f
7:12pm  -  mph - 77f 80f
7:06pm  -  mph - 77f 80f
7:00pm  -  mph 1018mb 77f -
6:54pm  -  mph 1017.9mb 77f -
6:48pm  -  mph - 77f -
6:42pm  -  mph - 77f -
6:36pm  -  mph - 77f -
6:30pm 8 15 mph 1017.9mb - -
6:24pm 11 17 mph 1017.9mb - -
6:18pm  -  mph - 77f 82f
6:12pm  -  mph - 77f 82f
6:06pm  -  mph - 78f 82f
6:00pm  -  mph - 78f -
5:54pm  -  mph - 78f -
5:48pm  -  mph - 78f -
5:42pm  -  mph - 78f -
5:36pm  -  mph - 78f -
5:30pm 9 14 mph 1017.8mb 78f 85f
5:24pm 6 10 mph 1017.8mb 78f 85f
5:18pm 7 15 mph 1017.7mb 79f 85f
5:12pm 8 11 mph 1017.6mb 79f 85f
5:06pm 9 15 mph 1017.5mb 79f 86f
5:00pm 9 14 mph 1017.6mb 80f 86f
4:54pm 8 11 mph 1017.6mb 80f 86f
4:48pm 6 13 mph 1017.7mb 80f 87f
4:42pm 7 10 mph 1017.7mb 80f 87f
4:36pm 8 11 mph 1017.8mb 80f 87f
4:30pm 10 14 mph 1017.9mb 80f 87f
4:24pm 6 7 mph 1018mb 80f 87f
4:18pm 5 13 mph 1018.1mb 80f 87f
4:12pm 11 14 mph 1018.1mb 80f 87f
4:06pm 9 13 mph 1018.2mb 80f 86f
4:00pm 6 11 mph 1018.3mb 79f 87f
3:54pm 6 11 mph 1018.4mb 79f 87f
3:48pm 8 14 mph 1018.4mb 79f 87f
3:42pm 5 10 mph 1018.4mb 79f 87f
3:36pm 9 13 mph 1018.6mb 79f 87f
3:30pm 7 13 mph 1018.6mb 78f 87f
3:24pm 11 14 mph 1018.7mb 78f 86f
3:18pm 9 17 mph 1018.7mb 78f 87f
3:12pm 7 11 mph 1018.8mb 78f 86f
3:06pm 11 14 mph 1018.8mb 78f 86f
3:00pm 6 9 mph 1018.9mb 78f 86f
2:54pm 9 11 mph 1019mb 78f 86f
2:48pm 6 16 mph 1019.1mb 78f 86f
2:42pm 8 13 mph 1019mb 77f 86f
2:36pm 10 14 mph 1019.1mb 77f 86f
2:30pm 6 9 mph 1019.2mb 77f 86f
2:24pm 6 11 mph 1019.3mb 77f 86f
2:18pm 10 14 mph 1019.4mb 77f 86f
2:12pm 9 14 mph 1019.4mb 77f 85f
2:06pm 7 15 mph 1019.5mb 76f 85f
2:00pm 7 13 mph 1019.6mb 76f 85f
1:54pm 3 7 mph 1019.6mb 76f 85f
1:48pm 6 10 mph 1019.7mb 76f 85f
1:42pm 6 11 mph 1019.8mb 76f 84f
1:36pm 8 13 mph 1019.9mb 76f 84f
1:30pm 8 11 mph 1019.9mb 76f 84f
1:24pm 6 11 mph 1020mb 76f 84f
1:18pm 8 10 mph 1020.1mb 76f 84f
1:12pm 7 15 mph 1020.1mb 76f 83f
1:06pm 8 11 mph 1020.1mb 76f 83f
1:00pm 6 8 mph 1020.2mb 76f 83f
12:54pm 8 10 mph 1020.2mb 76f 83f
12:48pm 5 10 mph 1020.3mb 76f 83f
12:42pm 6 10 mph 1020.3mb 76f 83f
12:36pm 6 8 mph 1020.3mb 76f 82f
12:30pm 7 9 mph 1020.4mb 76f 82f
12:24pm 6 8 mph 1020.5mb 76f 82f
12:18pm 3 8 mph 1020.6mb 75f 82f
12:12pm 3 6 mph 1020.6mb 75f 82f
12:06pm 6 8 mph 1020.7mb 75f 82f
12:00pm 5 8 mph 1020.8mb 75f 81f
11:54am 6 7 mph 1020.9mb 75f 81f
11:48am 6 14 mph 1020.9mb 75f 81f
11:42am 2 8 mph 1021mb 75f 82f
11:36am 3 7 mph 1021mb 75f 81f
11:30am 6 8 mph 1021mb 75f 80f
11:24am 6 10 mph 1021mb 75f 80f
11:18am 6 8 mph 1021mb 75f 80f
11:12am 6 10 mph 1021.2mb 75f 80f
11:06am 3 7 mph 1021.2mb 75f 79f
11:00am 8 10 mph 1021.2mb 75f 79f
10:54am 5 8 mph 1021.2mb 75f 79f
10:48am 6 9 mph 1021.2mb 75f 79f
10:42am 6 7 mph 1021.1mb 75f 78f
10:36am 6 8 mph 1021.2mb 75f 78f
10:30am 2 8 mph 1021.2mb 75f 78f
10:24am 5 6 mph 1021.3mb 75f 78f
10:18am 2 3 mph 1021.3mb 75f 78f
10:12am 3 5 mph 1021.3mb 75f 79f
10:06am 6 7 mph 1021.4mb 75f 77f
10:00am 5 7 mph 1021.3mb 75f 76f
9:54am 5 6 mph 1021.3mb 75f 76f
9:48am 5 7 mph 1021.3mb 75f 76f
9:42am 3 6 mph 1021.3mb 75f 76f
9:36am 3 5 mph 1021.4mb 75f 76f
9:30am 3 6 mph 1021.5mb 75f 75f
9:24am 5 7 mph 1021.6mb 75f 75f
9:18am 5 6 mph 1021.6mb 75f 75f
9:12am 3 5 mph 1021.5mb 75f 74f
9:06am 3 6 mph 1021.5mb 75f 74f
9:00am 3 5 mph 1021.6mb 75f 74f
8:54am 3 5 mph 1021.6mb 75f 74f
8:48am 5 7 mph 1021.6mb 75f 73f
8:42am 3 5 mph 1021.6mb 75f 73f
8:36am 5 6 mph 1021.7mb 75f 73f
8:30am 5 6 mph 1021.7mb 75f 72f
8:24am 3 5 mph 1021.7mb 75f 72f
8:18am 3 5 mph 1021.8mb 75f 71f
8:12am 2 3 mph 1021.7mb 75f 71f
8:06am 3 5 mph 1021.7mb 75f 71f
8:00am 2 3 mph 1021.8mb 75f 71f
7:54am 2 3 mph 1021.8mb 75f 70f
7:48am 2 5 mph 1021.9mb 75f 70f
7:42am 3 5 mph 1021.8mb 75f 69f
7:36am 1 3 mph 1021.8mb 75f 69f
7:30am 2 3 mph 1021.8mb 75f 68f
7:24am 2 5 mph 1021.8mb 75f 68f
7:18am 3 6 mph 1021.8mb 75f 68f
7:12am 3 5 mph 1021.7mb 75f 67f
7:06am 3 6 mph 1021.7mb 75f 68f
7:00am 3 5 mph 1021.7mb 75f 67f
6:54am 3 6 mph 1021.8mb 75f 66f
6:48am 2 5 mph 1021.8mb 75f 66f
6:42am 5 6 mph 1021.7mb 75f 66f
6:36am 3 5 mph 1021.7mb 75f 66f
6:30am 3 5 mph 1021.7mb 75f 66f
6:24am 3 5 mph 1021.7mb 75f 66f
6:18am 2 5 mph 1021.6mb 75f 66f
6:12am 3 5 mph 1021.6mb 75f 66f
6:06am 2 3 mph 1021.5mb 75f 66f
6:00am 3
mph
1021.4mb 75f 66f
5:54am 3 5 mph 1021.3mb 75f 66f
5:48am 2 5 mph 1021.3mb 75f 66f
5:42am 3 5 mph 1021.2mb 75f 66f
5:36am 2 5 mph 1021.3mb 75f 66f
5:30am 2 3 mph 1021.3mb 75f 66f
5:24am 3 6 mph 1021.3mb 75f 66f
5:18am 3 7 mph 1021.2mb 75f 66f
5:12am 3 5 mph 1021.2mb 75f 66f
5:06am 3 5 mph 1021.2mb 75f 67f
5:00am 3 6 mph 1021.1mb 75f 66f
4:54am 5
mph
1021.1mb 76f 67f
4:48am 3 6 mph 1021mb 76f 67f
4:42am 3 6 mph 1020.9mb 76f 67f
4:36am 5 7 mph 1021mb 76f 67f
4:30am 5 6 mph 1021mb 76f 67f
4:24am 5 6 mph 1020.9mb 76f 67f
4:18am 5 6 mph 1020.9mb 76f 67f
4:12am 5 6 mph 1021mb 76f 67f
4:06am 6
mph
1021mb 76f 67f
4:00am 6
mph
1021mb 76f 67f
3:54am 5 6 mph 1021mb 76f 67f
3:48am 3 5 mph 1021mb 76f 68f
3:42am 3 5 mph 1021.1mb 76f 68f
3:36am 3 5 mph 1021.1mb 76f 68f
3:30am 2 3 mph 1021.1mb 76f 68f
3:24am 3 5 mph 1021.1mb 76f 68f
3:18am 3 5 mph 1021.1mb 76f 68f
3:12am 5
mph
1021.1mb 76f 68f
3:06am 3 5 mph 1021.1mb 76f 69f
3:00am 3 5 mph 1021.1mb 76f 69f
2:54am 3 6 mph 1021.1mb 76f 69f
2:48am 3 5 mph 1021.2mb 76f 69f
2:42am 3 6 mph 1021.2mb 76f 69f
2:36am 3 5 mph 1021.2mb 76f 69f
2:30am 3 5 mph 1021.3mb 76f 69f
2:24am 3 5 mph 1021.3mb 76f 69f
2:18am 3 5 mph 1021.4mb 76f 69f
2:12am 3 5 mph 1021.4mb 76f 70f
2:06am 3 6 mph 1021.5mb 76f 70f
2:00am 3 5 mph 1021.4mb 76f 70f
1:54am 5 6 mph 1021.4mb 76f 70f
1:48am  -  mph 1021.4mb 76f 70f
1:42am  -  mph 1021.3mb 75f 70f
1:36am  -  mph 1021.3mb 75f 70f
1:30am 5 7 mph 1021.2mb 75f 71f
1:24am 5 7 mph 1021.1mb 75f 71f
1:18am 5 7 mph 1021.2mb 75f 71f
1:12am 6 8 mph 1021.1mb 75f 71f
1:06am 6 7 mph 1021.1mb 75f 71f
1:00am 6 8 mph 1021.1mb 75f 72f
12:54am 5 6 mph 1021.1mb 75f 72f
12:48am 5 7 mph 1021.1mb 75f 72f
12:42am 3 7 mph 1021.1mb 75f 72f
12:36am 3 6 mph 1021.2mb 74f 72f
12:30am 5 8 mph 1021.2mb 74f 73f
12:24am 6 8 mph 1021.1mb 74f 73f
12:18am 6 9 mph 1021.1mb 74f 73f
12:12am 6 9 mph 1021.2mb 74f 73f
12:06am 7 10 mph 1021.1mb 74f 73f
12:00am 7 10 mph 1021.1mb 74f 73f
Sat 05/28 11:54pm 7 8 mph 1021.1mb 74f 74f
11:48pm 7 10 mph 1021.1mb 74f 74f
11:42pm 6 8 mph 1021.1mb 74f 74f
11:36pm 6 7 mph 1021.1mb 74f 74f
11:30pm 6
mph
1021.1mb 74f 75f
11:24pm 5 8 mph 1021.2mb 74f 75f
11:18pm  -  mph 1021.2mb 74f 75f
11:12pm  -  mph 1021.2mb 74f 75f
11:06pm  -  mph 1021.1mb 74f 75f
11:00pm  -  mph 1021.1mb 74f 76f
10:54pm  -  mph 1021mb 74f 76f
10:48pm 5 6 mph - 74f -
10:42pm 6 8 mph - 74f -
10:36pm 5 8 mph - 74f -
10:30pm 6 9 mph 1021.2mb - -
10:24pm 6 8 mph 1021.2mb - -
10:18pm  -  mph 1021.3mb 74f 78f
10:12pm  -  mph 1021.3mb 74f 78f
10:06pm  -  mph 1021.2mb 74f 78f
10:00pm  -  mph 1021.1mb - -
9:54pm  -  mph 1021.1mb - -
9:48pm  -  mph - 74f 79f
9:42pm  -  mph - 74f 80f
9:36pm  -  mph - 74f 80f
9:30pm 6 8 mph - - -
9:24pm 6 8 mph - - -
9:18pm  -  mph 1020.6mb 74f 81f
9:12pm  -  mph 1020.5mb 74f 81f
9:06pm  -  mph 1020.5mb 74f 81f
9:00pm  -  mph 1020.4mb - -
8:54pm  -  mph 1020.3mb - -
8:48pm  -  mph - 74f -
8:42pm  -  mph - 74f -
8:36pm  -  mph - 74f -
8:30pm 8 11 mph - - -
8:24pm 8 10 mph - - -
8:18pm  -  mph 1019.9mb 74f -
8:12pm  -  mph 1019.9mb 74f -
8:06pm  -  mph 1019.9mb 75f -
8:00pm 6 10 mph - - -
7:54pm 7 11 mph - - -
7:48pm  -  mph 1019.8mb - -
7:42pm  -  mph 1019.8mb - -
7:36pm  -  mph 1019.8mb - -
7:30pm 5 8 mph 1019.7mb - -
7:24pm 7 9 mph 1019.6mb - -
7:18pm  -  mph - 75f 86f
7:12pm  -  mph - 75f 86f
7:06pm  -  mph - 75f 86f
7:00pm 5 7 mph - - -
6:54pm 8 9 mph - - -
6:48pm 6 11 mph - - -
6:42pm 8 11 mph - - -
6:36pm 7 14 mph - - -
6:30pm  -  mph 1019.3mb 75f -
6:24pm  -  mph 1019.2mb 75f -
6:18pm  -  mph 1019.2mb 75f 87f
6:12pm  -  mph 1019.1mb 75f 86f
6:06pm  -  mph 1019.1mb 75f 87f
6:00pm 10 15 mph - - -
5:54pm 8 14 mph - - -
5:48pm  -  mph 1019.1mb 75f 87f
5:42pm  -  mph 1019.1mb 75f 87f
5:36pm  -  mph 1019.2mb 75f 87f
5:30pm 9 15 mph 1019.2mb 75f 87f
5:24pm 11 15 mph 1019.2mb 75f 85f
5:18pm 9 14 mph 1019.3mb 75f 87f
5:12pm 8 16 mph 1019.3mb 75f 87f
5:06pm 13 17 mph 1019.3mb 76f 87f
5:00pm 11 18 mph 1019.3mb 76f 87f
4:54pm 13 16 mph 1019.3mb 76f 87f
4:48pm 7 17 mph 1019.4mb 76f 88f
4:42pm 11 18 mph 1019.4mb 76f 87f
4:36pm 11 16 mph 1019.3mb 77f 87f
4:30pm 10 17 mph 1019.3mb 77f 87f
4:24pm 13 18 mph 1019.3mb 77f 87f
4:18pm 13 15 mph 1019.2mb 78f 87f
4:12pm 11 16 mph 1019.3mb 78f 87f
4:06pm 11 21 mph 1019.3mb 78f 88f
4:00pm 8 15 mph 1019.4mb 78f 87f
3:54pm 14 18 mph 1019.5mb 78f 87f
3:48pm 14 23 mph 1019.5mb 78f 87f
3:42pm 13 20 mph 1019.6mb 78f 86f
3:36pm 16 20 mph 1019.7mb 78f 87f
3:30pm 10 22 mph 1019.7mb 77f 88f
3:24pm 11 16 mph 1019.7mb 77f 88f
3:18pm 13 20 mph 1019.7mb 77f 87f
3:12pm 14 16 mph 1019.6mb 77f 87f
3:06pm 13 16 mph 1019.7mb 77f 87f
3:00pm 15 21 mph 1019.6mb 76f 87f
2:54pm 11 17 mph 1019.6mb 76f 87f
2:48pm 17 21 mph 1019.7mb 76f 87f
2:42pm 11 22 mph 1019.7mb 76f 87f
2:36pm 10 20 mph 1019.6mb 76f 86f
2:30pm 10 16 mph 1019.7mb 76f 87f
2:24pm 13 18 mph 1019.7mb 75f 87f
2:18pm 11 16 mph 1019.7mb 75f 87f
2:12pm 10 17 mph 1019.9mb 75f 87f
2:06pm 10 15 mph 1020mb 75f 87f
2:00pm 9 14 mph 1020.1mb 75f 87f
1:54pm 6 14 mph 1020.2mb 75f 86f
1:48pm 10 16 mph 1020.3mb 75f 87f
1:42pm 11 15 mph 1020.4mb 74f 86f
1:36pm 10 15 mph 1020.3mb 74f 86f
1:30pm 10 15 mph 1020.3mb 74f 86f
1:24pm 9 15 mph 1020.4mb 74f 85f
1:18pm 8 13 mph 1020.5mb 74f 85f
1:12pm 8 11 mph 1020.5mb 74f 85f
1:06pm 8 13 mph 1020.6mb 73f 85f
1:00pm 10 13 mph 1020.6mb 73f 85f
12:54pm 9 14 mph 1020.7mb 73f 85f
12:48pm 8 10 mph 1020.7mb 73f 85f
12:42pm 6 9 mph 1020.7mb 73f 84f
12:36pm 6 9 mph 1020.8mb 73f 84f
12:30pm 6 9 mph 1020.7mb 73f 83f
12:24pm 5 8 mph 1020.8mb 73f 84f
12:18pm 6 7 mph 1020.8mb 73f 83f
12:12pm 6 9 mph 1020.8mb 73f 83f
12:06pm 7 11 mph 1020.9mb 73f 82f
12:00pm 6 10 mph 1021mb 73f 82f
11:54am 6 7 mph 1021mb 73f 81f
11:48am 6 7 mph 1021.1mb 73f 81f
11:42am 6 7 mph 1021.1mb 73f 81f
11:36am 6 9 mph 1021.2mb 73f 81f
11:30am 5 6 mph 1021.3mb 73f 81f
11:24am 3 9 mph 1021.3mb 72f 81f
11:18am 5 8 mph 1021.3mb 72f 81f
11:12am 5 8 mph 1021.3mb 72f 80f
11:06am 7 8 mph 1021.4mb 72f 79f
11:00am 6 8 mph 1021.4mb 72f 79f
10:54am 6 9 mph 1021.4mb 72f 79f
10:48am 7 10 mph 1021.5mb 72f 78f
10:42am 8 10 mph 1021.4mb 72f 78f
10:36am 8 9 mph 1021.4mb 72f 78f
10:30am 8 10 mph 1021.5mb 72f 78f
10:24am 8 9 mph 1021.4mb 72f 78f
10:18am 7 9 mph 1021.4mb 72f 78f
10:12am 7 9 mph 1021.4mb 72f 77f
10:06am 7 9 mph 1021.3mb 72f 76f
10:00am 8 10 mph 1021.3mb 72f 76f
9:54am 8 10 mph 1021.3mb 72f 76f
9:48am 8 9 mph 1021.3mb 72f 76f
9:42am 8 10 mph 1021.3mb 72f 76f
9:36am 7 10 mph 1021.3mb 72f 76f
9:24am 8 10 mph 1021.3mb 72f 75f
9:18am 8 10 mph 1021.3mb 72f 75f
9:12am 8 11 mph 1021.4mb 72f 74f
9:06am 10 13 mph 1021.4mb 72f 74f
9:00am 8 10 mph 1021.3mb 72f 74f
8:54am 9 13 mph 1021.2mb 72f 74f
8:48am 10 13 mph 1021.2mb 72f 74f
8:42am 10 14 mph 1021.1mb 72f 73f
8:36am 9 11 mph 1021.1mb 72f 73f
8:30am 9 11 mph 1021mb 72f 73f
8:24am 8 10 mph 1020.9mb 72f 73f
8:18am 9 11 mph 1020.9mb 72f 73f
8:12am 7 10 mph 1020.9mb 72f 72f
8:06am 7 9 mph 1020.9mb 72f 72f
8:00am 6 8 mph 1020.9mb 72f 72f
7:54am 6 7 mph 1020.9mb 72f 71f
7:48am 5 6 mph 1020.9mb 72f 71f
7:42am 5 6 mph 1020.9mb 72f 70f
7:36am 5 7 mph 1021mb 72f 70f
7:30am 5 7 mph 1020.9mb 72f 69f
7:24am 5 7 mph 1021mb 72f 69f
7:18am 5
mph
1021.1mb 72f 69f
7:12am 3 7 mph 1021.1mb 72f 69f
7:06am 3 6 mph 1021.1mb 73f 69f
7:00am 5 6 mph 1021.1mb 73f 68f
6:54am 3 5 mph 1021.1mb 73f 68f
6:48am 3 6 mph 1021.1mb 73f 69f
6:42am 5
mph
1021mb 73f 68f
6:36am 2 6 mph 1021.1mb 73f 68f
6:30am 3 6 mph 1021mb 73f 68f
6:24am 3 6 mph 1020.9mb 73f 68f
6:18am 2 5 mph 1020.8mb 73f 68f
6:12am 3 5 mph 1020.7mb 73f 68f
6:06am 5 6 mph 1020.7mb 73f 68f
6:00am 3 6 mph 1020.7mb 73f 68f
5:54am 3 5 mph 1020.6mb 73f 68f
5:48am 3 5 mph 1020.6mb 73f 68f
5:42am 3 5 mph 1020.5mb 73f 68f
5:36am 2 3 mph 1020.6mb 73f 68f
5:30am 3 5 mph 1020.5mb 73f 68f
5:24am 3 5 mph 1020.4mb 73f 68f
5:18am 2 5 mph 1020.3mb 73f 69f
5:12am 3 6 mph 1020.2mb 73f 69f
5:06am 5 6 mph 1020.1mb 73f 69f
5:00am 3 5 mph 1020.1mb 73f 69f
4:54am 5 7 mph 1020mb 73f 69f
4:48am 3 7 mph 1020mb 73f 69f
4:42am 5 6 mph 1019.9mb 73f 69f
4:36am 3 6 mph 1019.9mb 73f 69f
4:30am 5 6 mph 1019.9mb 73f 69f
4:24am 5 6 mph 1019.8mb 73f 69f
4:18am 3 6 mph 1019.8mb 73f 69f
4:12am 3 5 mph 1019.8mb 73f 69f
4:06am 5 6 mph 1019.7mb 73f 70f
4:00am 5 7 mph 1019.7mb 73f 70f
3:54am 3 6 mph 1019.7mb 73f 70f
3:48am 5 6 mph 1019.7mb 73f 70f
3:42am 3 6 mph 1019.6mb 73f 70f
3:36am 5 6 mph 1019.7mb 74f 70f
3:30am 5 6 mph 1019.6mb 74f 71f
3:24am 3 5 mph 1019.7mb 74f 71f
3:18am 5 6 mph 1019.7mb 74f 71f
3:12am 3 6 mph 1019.7mb 74f 71f
3:06am 5 6 mph 1019.6mb 74f 71f
3:00am 3 6 mph 1019.6mb 74f 71f
2:54am 6 7 mph 1019.5mb 74f 71f
2:48am 5 7 mph 1019.5mb 74f 71f
2:42am 6 8 mph 1019.6mb 74f 72f
2:36am 5 8 mph 1019.6mb 74f 72f
2:30am 3 7 mph 1019.6mb 74f 72f
2:24am 3 6 mph 1019.6mb 74f 72f
2:18am  -  mph 1019.6mb 74f 72f
2:12am  -  mph 1019.4mb 74f 72f
2:06am  -  mph 1019.4mb 74f 72f
2:00am  -  mph 1019.4mb 74f 72f
1:54am  -  mph 1019.4mb 74f 72f
1:48am 6 8 mph 1019.4mb 74f 72f
1:42am 6 7 mph 1019.4mb 74f 72f
1:36am 6 9 mph 1019.3mb 74f 72f
1:30am 7 9 mph 1019.3mb 74f 73f
1:24am 6 8 mph 1019.3mb 74f 73f
1:18am 6 8 mph 1019.3mb 74f 73f
1:12am 5 9 mph 1019.3mb 74f 73f
1:06am 6 9 mph 1019.2mb 74f 73f
1:00am 6 10 mph 1019.3mb 73f 73f
12:54am 6 9 mph 1019.3mb 73f 73f
12:48am 6 9 mph 1019.3mb 73f 73f
12:42am 7 11 mph 1019.2mb 73f 73f
12:36am 8 11 mph 1019.2mb 73f 73f
12:30am 6 14 mph 1019.3mb 73f 73f
12:24am 8 11 mph 1019.3mb 73f 73f
12:18am 7 9 mph 1019.3mb 73f 74f
12:12am 8 11 mph 1019.3mb 73f 74f
12:06am 8 11 mph 1019.2mb 73f 74f
12:00am 7 14 mph 1019.2mb 73f 74f
Fri 05/27 11:48pm  -  mph 1019.1mb 72f 74f
11:42pm  -  mph 1019.1mb 72f 74f
11:36pm  -  mph 1019.2mb 72f 74f
11:30pm 6 8 mph 1019.1mb 72f 75f
11:24pm 6 9 mph 1019.1mb 72f 75f
11:18pm  -  mph 1019mb 72f -
11:12pm  -  mph 1019mb 72f -
11:06pm  -  mph 1018.8mb 72f -
11:00pm 7 10 mph 1018.8mb 72f -
10:54pm 7 10 mph 1018.8mb 72f -
10:48pm  -  mph - 72f -
10:42pm  -  mph - 72f -
10:36pm  -  mph - 72f -
10:30pm  -  mph 1018.9mb - -
10:24pm  -  mph 1018.9mb - -
10:18pm  -  mph 1018.9mb - 77f
10:12pm  -  mph 1018.9mb - 78f
10:06pm  -  mph 1018.8mb - 78f
10:00pm 9 13 mph 1018.7mb - -
9:54pm 8 11 mph 1018.7mb - -
9:48pm  -  mph 1018.6mb 72f -
9:42pm  -  mph 1018.5mb 72f -
9:36pm  -  mph 1018.4mb 72f -
9:30pm 7 10 mph 1018.3mb 72f -
9:24pm 7 10 mph 1018.2mb 72f -
9:18pm  -  mph 1018.1mb 72f -
9:12pm  -  mph 1017.9mb 72f -
9:06pm  -  mph 1017.8mb 72f -
9:00pm 6 11 mph 1017.7mb - -
8:54pm 8 13 mph 1017.6mb - -
8:48pm  -  mph 1017.6mb 72f -
8:42pm  -  mph 1017.6mb 72f -
8:36pm  -  mph 1017.5mb 72f -
8:30pm 6 9 mph 1017.4mb 72f -
8:24pm 6 11 mph 1017.4mb 72f -
8:18pm  -  mph - 72f 82f
8:12pm  -  mph - 72f 83f
8:06pm  -  mph - 72f 83f
8:00pm  -  mph 1017.1mb 72f -
7:54pm  -  mph 1016.9mb 72f -
7:48pm  -  mph 1016.8mb 72f -
7:42pm  -  mph 1016.8mb 72f -
7:36pm  -  mph 1016.8mb 72f -
7:30pm 10 13 mph 1016.6mb 72f -
7:24pm 8 11 mph 1016.7mb 72f -
7:18pm  -  mph 1016.7mb 72f 85f
7:12pm  -  mph 1016.7mb 72f 86f
7:06pm  -  mph 1016.6mb 72f 86f
7:00pm 10 16 mph 1016.6mb - -
6:54pm 9 14 mph 1016.6mb - -
6:48pm 10 17 mph 1016.5mb - -
6:42pm 10 14 mph 1016.5mb - -
6:36pm 10 15 mph 1016.4mb - -